Time;durP1;ratioP1;P1;durP2;ratioP2;P2;SDS_P1;SDS_P2;PMS_P1;PMS_P2;Temp;Humidity;BMP_temperature;BMP_pressure;BME280_temperature;BME280_humidity;BME280_pressure;Samples;Min_cycle;Max_cycle;Signal;HPM_P1;HPM_P2
2022/03/12 00:00:43;;;;;;;19.63;10.30;;;4.00;70.90;;;;;;6127545;23;20604;-85
2022/03/12 00:03:09;;;;;;;12.70;9.50;;;4.00;71.10;;;;;;6129223;23;20430;-85
2022/03/12 00:05:50;;;;;;;12.47;9.17;;;4.00;71.80;;;;;;6125966;23;20470;-85
2022/03/12 00:08:16;;;;;;;13.40;10.00;;;4.10;72.60;;;;;;6129997;23;20410;-86
2022/03/12 00:10:43;;;;;;;11.77;9.70;;;4.00;71.00;;;;;;6123669;23;20411;-85
2022/03/12 00:13:09;;;;;;;12.53;10.27;;;4.10;70.60;;;;;;6122336;23;20395;-86
2022/03/12 00:15:37;;;;;;;11.63;9.30;;;4.00;71.00;;;;;;6128949;23;20870;-85
2022/03/12 00:18:06;;;;;;;12.57;9.73;;;4.10;70.20;;;;;;6124761;23;20408;-86
2022/03/12 00:20:32;;;;;;;15.60;9.23;;;4.20;69.80;;;;;;6124848;23;20396;-86
2022/03/12 00:22:58;;;;;;;16.40;10.03;;;4.30;69.80;;;;;;6125339;23;20489;-85
2022/03/12 00:25:27;;;;;;;12.67;9.90;;;4.30;69.30;;;;;;6123354;23;20446;-86
2022/03/12 00:27:53;;;;;;;13.30;9.77;;;4.30;70.00;;;;;;6126695;23;20380;-86
2022/03/12 00:30:22;;;;;;;13.03;9.87;;;4.30;69.40;;;;;;6127029;23;20767;-85
2022/03/12 00:32:49;;;;;;;13.17;9.90;;;4.30;69.10;;;;;;6126940;23;20731;-86
2022/03/12 00:35:18;;;;;;;11.87;9.53;;;4.40;69.10;;;;;;6123790;23;20561;-86
2022/03/12 00:37:45;;;;;;;14.20;9.90;;;4.50;69.50;;;;;;6127800;23;20842;-84
2022/03/12 00:40:12;;;;;;;12.63;10.30;;;4.50;71.80;;;;;;6122070;23;20395;-86
2022/03/12 00:42:37;;;;;;;16.60;9.97;;;4.50;71.50;;;;;;6125193;23;20809;-86
2022/03/12 00:45:03;;;;;;;12.40;10.00;;;4.30;70.10;;;;;;6121947;23;20491;-86
2022/03/12 00:47:29;;;;;;;11.33;9.67;;;4.30;70.10;;;;;;6123820;23;20152;-86
2022/03/12 00:49:55;;;;;;;13.03;9.97;;;4.40;70.00;;;;;;6125896;23;20468;-86
2022/03/12 00:52:21;;;;;;;16.63;10.20;;;4.40;69.80;;;;;;6123756;23;20892;-85
2022/03/12 00:54:47;;;;;;;12.43;10.40;;;4.50;69.40;;;;;;6124408;23;20172;-85
2022/03/12 00:57:13;;;;;;;12.13;10.33;;;4.60;69.40;;;;;;6120773;23;20383;-85
2022/03/12 00:59:40;;;;;;;13.00;10.00;;;4.50;69.00;;;;;;6123171;23;20674;-85
2022/03/12 01:02:06;;;;;;;12.73;10.50;;;4.50;70.10;;;;;;6126552;23;20428;-84
2022/03/12 01:04:31;;;;;;;13.20;10.17;;;4.50;69.70;;;;;;6125367;23;20431;-84
2022/03/12 01:06:57;;;;;;;11.33;9.23;;;4.30;70.10;;;;;;6127286;23;20164;-85
2022/03/12 01:09:23;;;;;;;12.13;9.67;;;4.20;72.20;;;;;;6129568;23;20398;-85
2022/03/12 01:11:48;;;;;;;11.27;9.27;;;4.10;71.40;;;;;;6127739;23;20170;-85
2022/03/12 01:14:15;;;;;;;10.17;8.17;;;4.10;70.60;;;;;;6129830;23;20163;-85
2022/03/12 01:16:41;;;;;;;11.33;8.70;;;4.20;68.60;;;;;;6127821;23;20223;-84
2022/03/12 01:19:07;;;;;;;11.17;9.20;;;4.40;67.90;;;;;;6126378;23;20546;-85
2022/03/12 01:21:32;;;;;;;10.80;8.53;;;4.40;68.70;;;;;;6130565;23;20601;-85
2022/03/12 01:23:58;;;;;;;10.23;8.00;;;4.40;68.30;;;;;;6131862;23;20157;-85
2022/03/12 01:26:24;;;;;;;11.60;8.80;;;4.30;68.80;;;;;;6129684;23;20196;-85
2022/03/12 01:28:50;;;;;;;14.07;9.10;;;4.30;68.80;;;;;;6128281;23;20160;-84
2022/03/12 01:31:17;;;;;;;10.80;8.87;;;4.40;69.40;;;;;;6128517;23;20551;-85
2022/03/12 01:33:42;;;;;;;11.00;8.40;;;4.40;67.50;;;;;;6128525;23;20608;-84
2022/03/12 01:36:09;;;;;;;11.23;9.03;;;4.50;68.70;;;;;;6128094;23;20392;-85
2022/03/12 01:38:46;;;;;;;11.20;8.93;;;4.60;69.40;;;;;;6131960;23;20160;-84
2022/03/12 01:41:12;;;;;;;12.27;8.87;;;4.50;68.90;;;;;;6129218;23;20399;-84
2022/03/12 01:43:37;;;;;;;12.43;8.37;;;4.40;68.80;;;;;;6129384;23;20762;-83
2022/03/12 01:46:10;;;;;;;11.20;8.70;;;4.40;67.80;;;;;;6125369;23;20443;-84
2022/03/12 01:48:38;;;;;;;9.77;8.00;;;4.50;66.50;;;;;;6127460;23;20352;-84
2022/03/12 01:51:03;;;;;;;11.80;8.40;;;4.50;65.30;;;;;;6124282;23;20936;-84
2022/03/12 01:53:29;;;;;;;11.30;8.30;;;4.60;65.70;;;;;;6119148;23;20454;-84
2022/03/12 01:55:56;;;;;;;14.13;8.70;;;4.60;66.30;;;;;;6124968;23;20202;-84
2022/03/12 01:58:22;;;;;;;9.30;8.20;;;4.70;66.80;;;;;;6122983;23;20538;-84
2022/03/12 02:00:51;;;;;;;11.10;8.70;;;4.70;66.60;;;;;;6122762;23;20929;-84
2022/03/12 02:03:26;;;;;;;9.50;7.83;;;4.70;65.70;;;;;;6126509;23;20484;-84
2022/03/12 02:05:53;;;;;;;11.80;7.97;;;4.70;65.00;;;;;;6126417;23;20439;-84
2022/03/12 02:08:19;;;;;;;11.80;8.13;;;4.60;66.00;;;;;;6121908;23;20394;-83
2022/03/12 02:10:47;;;;;;;12.03;8.83;;;4.60;66.60;;;;;;6126665;23;20396;-84
2022/03/12 02:13:13;;;;;;;11.37;9.27;;;4.60;67.40;;;;;;6121888;23;20575;-84
2022/03/12 02:15:39;;;;;;;10.40;8.37;;;4.60;67.20;;;;;;6129841;23;20485;-84
2022/03/12 02:18:05;;;;;;;12.13;8.70;;;4.40;67.70;;;;;;6126442;23;20480;-85
2022/03/12 02:20:31;;;;;;;10.70;8.50;;;4.20;69.10;;;;;;6121306;23;20404;-85
2022/03/12 02:22:59;;;;;;;12.07;8.10;;;4.30;68.90;;;;;;6124856;23;20701;-85
2022/03/12 02:25:30;;;;;;;11.70;9.00;;;4.20;69.40;;;;;;6128302;23;20446;-85
2022/03/12 02:27:58;;;;;;;11.33;8.53;;;4.20;69.70;;;;;;6125685;23;20384;-84
2022/03/12 02:30:33;;;;;;;11.43;8.30;;;4.20;71.10;;;;;;6123654;23;20731;-84
2022/03/12 02:33:01;;;;;;;12.80;8.40;;;4.10;70.40;;;;;;6122550;23;20393;-85
2022/03/12 02:35:28;;;;;;;12.40;8.93;;;4.10;70.40;;;;;;6125394;23;20403;-85
2022/03/12 02:37:53;;;;;;;10.67;8.27;;;4.00;71.70;;;;;;6127999;23;20479;-84
2022/03/12 02:40:20;;;;;;;13.60;8.50;;;4.00;72.60;;;;;;6128510;23;20511;-85
2022/03/12 02:42:50;;;;;;;11.47;8.50;;;4.00;71.10;;;;;;6129238;23;20157;-85
2022/03/12 02:45:15;;;;;;;13.13;8.23;;;4.10;70.50;;;;;;6124448;23;20443;-85
2022/03/12 02:47:43;;;;;;;9.83;8.03;;;4.10;70.40;;;;;;6127783;23;20762;-85
2022/03/12 02:50:11;;;;;;;11.50;8.80;;;4.10;70.10;;;;;;6126864;23;20268;-85
2022/03/12 02:52:39;;;;;;;15.33;8.20;;;4.10;69.30;;;;;;6123753;23;20478;-84
2022/03/12 02:55:06;;;;;;;11.80;9.13;;;4.20;68.70;;;;;;6124012;23;20484;-84
2022/03/12 02:57:31;;;;;;;11.37;8.60;;;4.20;68.10;;;;;;6126187;23;20587;-84
2022/03/12 03:00:04;;;;;;;9.67;7.60;;;4.10;68.60;;;;;;6127394;23;20875;-84
2022/03/12 03:02:41;;;;;;;11.70;9.07;;;4.10;68.80;;;;;;6126534;23;20157;-84
2022/03/12 03:05:13;;;;;;;11.70;7.97;;;4.10;68.60;;;;;;6125590;23;20820;-84
2022/03/12 03:07:43;;;;;;;13.73;9.10;;;4.10;70.00;;;;;;6154638;23;20851;-84
2022/03/12 03:10:10;;;;;;;12.60;8.80;;;4.20;69.60;;;;;;6129648;23;20408;-84
2022/03/12 03:12:36;;;;;;;11.30;8.23;;;4.20;68.80;;;;;;6130586;23;20518;-84
2022/03/12 03:15:03;;;;;;;12.20;8.70;;;4.10;68.80;;;;;;6126734;23;20954;-83
2022/03/12 03:17:28;;;;;;;8.80;7.90;;;4.10;69.30;;;;;;6100191;23;20847;-84
2022/03/12 03:19:55;;;;;;;10.37;8.00;;;4.10;69.00;;;;;;6127333;23;20418;-83
2022/03/12 03:22:20;;;;;;;9.47;7.20;;;4.10;69.00;;;;;;6130595;23;20353;-83
2022/03/12 03:24:47;;;;;;;9.87;8.37;;;4.10;69.00;;;;;;6129119;23;20829;-83
2022/03/12 03:27:12;;;;;;;9.60;8.00;;;4.20;68.30;;;;;;6129364;23;20164;-83
2022/03/12 03:29:38;;;;;;;10.80;8.43;;;4.10;68.20;;;;;;6130571;23;20388;-84
2022/03/12 03:32:05;;;;;;;11.40;7.93;;;4.00;68.20;;;;;;6130725;23;20163;-84
2022/03/12 03:34:32;;;;;;;10.20;8.10;;;4.00;67.80;;;;;;6134403;23;20235;-84
2022/03/12 03:36:58;;;;;;;10.60;7.87;;;3.90;67.90;;;;;;6130900;23;20411;-84
2022/03/12 03:39:25;;;;;;;8.87;7.87;;;3.90;68.40;;;;;;6133160;23;20778;-84
2022/03/12 03:41:51;;;;;;;9.87;8.10;;;3.80;68.50;;;;;;6131677;23;20376;-84
2022/03/12 03:44:22;;;;;;;11.13;8.73;;;3.80;69.70;;;;;;6134304;23;20403;-84
2022/03/12 03:46:48;;;;;;;10.40;7.67;;;3.90;69.60;;;;;;6134617;23;20405;-83
2022/03/12 03:49:14;;;;;;;10.60;8.10;;;4.00;68.70;;;;;;6132283;23;20391;-84
2022/03/12 03:51:41;;;;;;;9.20;7.40;;;3.90;68.30;;;;;;6128362;23;20807;-84
2022/03/12 03:54:08;;;;;;;12.10;7.73;;;3.80;69.50;;;;;;6125218;23;20156;-84
2022/03/12 03:56:35;;;;;;;11.23;7.50;;;3.70;69.70;;;;;;6129453;23;20395;-84
2022/03/12 03:59:00;;;;;;;32.80;16.70;;;3.50;70.50;;;;;;6131121;23;20395;-83
2022/03/12 04:01:26;;;;;;;12.47;8.93;;;3.50;70.20;;;;;;6128780;23;20414;-84
2022/03/12 04:03:51;;;;;;;9.17;7.73;;;3.50;70.30;;;;;;6129444;23;20194;-84
2022/03/12 04:06:19;;;;;;;8.53;7.47;;;3.50;70.60;;;;;;6124512;23;20201;-85
2022/03/12 04:08:45;;;;;;;11.47;7.73;;;3.50;70.30;;;;;;6127314;23;20169;-85
2022/03/12 04:11:20;;;;;;;9.70;7.30;;;3.60;70.90;;;;;;6128558;23;20944;-85
2022/03/12 04:13:47;;;;;;;10.77;8.23;;;3.50;70.20;;;;;;6128056;23;20183;-85
2022/03/12 04:16:14;;;;;;;9.83;7.60;;;3.50;70.20;;;;;;6126638;23;20584;-85
2022/03/12 04:18:45;;;;;;;11.17;7.40;;;3.50;69.60;;;;;;6124687;23;20387;-85
2022/03/12 04:21:13;;;;;;;8.90;7.87;;;3.50;69.40;;;;;;6122591;23;20862;-85
2022/03/12 04:23:39;;;;;;;13.70;7.20;;;3.50;68.30;;;;;;6122214;23;20503;-85
2022/03/12 04:26:05;;;;;;;10.33;7.53;;;3.60;68.10;;;;;;6122226;23;20443;-85
2022/03/12 04:28:32;;;;;;;10.10;8.40;;;3.60;67.80;;;;;;6127054;23;20727;-85
2022/03/12 04:30:59;;;;;;;10.93;7.17;;;3.60;67.80;;;;;;6126373;23;20256;-84
2022/03/12 04:33:25;;;;;;;8.87;7.13;;;3.50;67.50;;;;;;6123070;23;20418;-85
2022/03/12 04:35:51;;;;;;;8.63;6.73;;;3.50;67.90;;;;;;6126625;23;20403;-85
2022/03/12 04:38:17;;;;;;;9.20;6.93;;;3.40;68.40;;;;;;6125944;23;20170;-85
2022/03/12 04:40:44;;;;;;;9.27;7.43;;;3.30;68.70;;;;;;6124706;23;20160;-85
2022/03/12 04:43:12;;;;;;;15.70;7.33;;;3.50;68.80;;;;;;6124362;23;20396;-84
2022/03/12 04:45:45;;;;;;;9.80;6.30;;;3.60;67.70;;;;;;6152853;23;20454;-85
2022/03/12 04:48:15;;;;;;;9.00;7.53;;;3.70;66.50;;;;;;6122807;23;20374;-85
2022/03/12 04:50:41;;;;;;;9.23;7.77;;;3.90;65.70;;;;;;6121705;23;20412;-85
2022/03/12 04:53:08;;;;;;;7.70;6.57;;;3.70;65.80;;;;;;6123350;23;20892;-85
2022/03/12 04:55:36;;;;;;;8.47;6.90;;;3.80;65.60;;;;;;6129197;23;20164;-86
2022/03/12 04:58:03;;;;;;;9.33;6.80;;;3.80;64.70;;;;;;6131754;23;20446;-85
2022/03/12 05:00:31;;;;;;;7.30;6.30;;;3.70;64.50;;;;;;6129995;23;20805;-85
2022/03/12 05:03:09;;;;;;;9.80;6.77;;;3.60;64.10;;;;;;6133636;23;20455;-86
2022/03/12 05:05:41;;;;;;;9.40;7.70;;;3.50;64.50;;;;;;6103349;23;20449;-86
2022/03/12 05:08:28;;;;;;;9.53;7.00;;;3.50;64.50;;;;;;6129630;23;20408;-85
2022/03/12 05:10:55;;;;;;;9.93;6.60;;;3.60;64.20;;;;;;6127541;23;20997;-86
2022/03/12 05:13:27;;;;;;;9.73;7.70;;;3.80;64.50;;;;;;6125318;23;20438;-85
2022/03/12 05:15:55;;;;;;;8.10;6.30;;;3.90;64.00;;;;;;6127453;23;20387;-84
2022/03/12 05:18:22;;;;;;;8.87;6.83;;;3.90;64.10;;;;;;6128038;23;20463;-85
2022/03/12 05:20:48;;;;;;;8.20;7.30;;;3.80;63.40;;;;;;6122108;23;20401;-86
2022/03/12 05:23:15;;;;;;;9.60;7.10;;;3.90;63.90;;;;;;6126882;23;20387;-85
2022/03/12 05:25:41;;;;;;;9.80;7.17;;;4.00;63.00;;;;;;6130371;23;20446;-85
2022/03/12 05:28:09;;;;;;;7.37;6.57;;;4.10;62.80;;;;;;6123746;23;20391;-85
2022/03/12 05:30:35;;;;;;;10.10;7.43;;;4.10;63.40;;;;;;6124839;23;20498;-84
2022/03/12 05:33:01;;;;;;;11.50;7.70;;;4.10;63.50;;;;;;6130587;23;20725;-86
2022/03/12 05:35:27;;;;;;;11.73;8.30;;;3.90;63.60;;;;;;6123787;23;20391;-84
2022/03/12 05:37:55;;;;;;;9.47;7.00;;;4.00;63.10;;;;;;6126654;23;20156;-84
2022/03/12 05:40:26;;;;;;;15.97;8.97;;;4.00;63.30;;;;;;6123553;23;20168;-84
2022/03/12 05:42:55;;;;;;;9.70;8.07;;;4.00;63.20;;;;;;6130539;23;20398;-84
2022/03/12 05:45:22;;;;;;;11.07;8.47;;;4.10;64.80;;;;;;6125296;23;20773;-84
2022/03/12 05:47:49;;;;;;;11.83;7.90;;;4.10;65.40;;;;;;6135295;23;20382;-84
2022/03/12 05:50:16;;;;;;;9.57;7.90;;;4.10;63.60;;;;;;6129758;23;20391;-84
2022/03/12 05:52:47;;;;;;;10.70;7.53;;;4.10;62.70;;;;;;6122213;23;20450;-85
2022/03/12 05:55:14;;;;;;;10.33;7.43;;;4.20;62.80;;;;;;6121285;23;20532;-85
2022/03/12 05:57:42;;;;;;;10.10;7.47;;;4.10;63.10;;;;;;6123292;23;20384;-86
2022/03/12 06:00:11;;;;;;;13.70;7.27;;;4.10;64.00;;;;;;6124664;23;20415;-86
2022/03/12 06:02:43;;;;;;;10.03;6.93;;;4.20;64.10;;;;;;6127707;23;20718;-85
2022/03/12 06:05:13;;;;;;;10.87;6.83;;;4.10;64.90;;;;;;6127198;23;20770;-85
2022/03/12 06:07:44;;;;;;;9.70;7.33;;;4.20;65.20;;;;;;6126738;23;20418;-85
2022/03/12 06:10:10;;;;;;;8.00;6.30;;;4.20;65.80;;;;;;6131004;23;20976;-86
2022/03/12 06:12:36;;;;;;;11.40;7.50;;;4.20;65.80;;;;;;6127537;23;20391;-85
2022/03/12 06:15:04;;;;;;;9.30;7.00;;;4.10;65.10;;;;;;6130731;23;20426;-85
2022/03/12 06:17:31;;;;;;;7.30;6.60;;;4.00;66.70;;;;;;6132254;23;20621;-85
2022/03/12 06:19:56;;;;;;;8.23;7.27;;;4.00;67.40;;;;;;6129575;23;20817;-85
2022/03/12 06:22:28;;;;;;;10.20;7.37;;;4.00;65.70;;;;;;6130373;23;20482;-85
2022/03/12 06:24:53;;;;;;;9.87;7.00;;;4.00;65.00;;;;;;6128547;23;20267;-86
2022/03/12 06:27:22;;;;;;;10.20;7.77;;;4.20;64.50;;;;;;6129559;23;20392;-85
2022/03/12 06:30:08;;;;;;;13.00;7.13;;;4.30;63.80;;;;;;6129968;23;20464;-84
2022/03/12 06:32:42;;;;;;;8.50;6.23;;;4.40;63.20;;;;;;6132534;23;20468;-86
2022/03/12 06:35:10;;;;;;;9.73;6.83;;;4.60;62.70;;;;;;6132681;23;20424;-85
2022/03/12 06:37:36;;;;;;;9.40;7.77;;;4.80;62.40;;;;;;6134201;23;20388;-85
2022/03/12 06:40:02;;;;;;;8.10;7.27;;;4.90;62.50;;;;;;6132095;23;20972;-85
2022/03/12 06:42:32;;;;;;;8.47;6.90;;;4.90;62.70;;;;;;6136352;23;20168;-87
2022/03/12 06:44:57;;;;;;;9.73;7.07;;;5.00;62.60;;;;;;6132366;23;20846;-87
2022/03/12 06:47:29;;;;;;;9.43;7.50;;;5.10;61.70;;;;;;6133683;23;20396;-86
2022/03/12 06:49:56;;;;;;;10.10;6.77;;;5.20;61.80;;;;;;6133425;23;20168;-86
2022/03/12 06:52:21;;;;;;;8.90;6.87;;;5.20;60.80;;;;;;6131573;23;20388;-86
2022/03/12 06:54:47;;;;;;;10.70;7.30;;;5.30;60.50;;;;;;6131980;23;20416;-85
2022/03/12 06:57:12;;;;;;;9.00;7.00;;;5.40;59.50;;;;;;6133552;23;20183;-84
2022/03/12 06:59:38;;;;;;;8.70;7.50;;;5.50;59.50;;;;;;6132631;23;20167;-85
2022/03/12 07:02:04;;;;;;;7.70;6.40;;;5.60;59.10;;;;;;6132009;23;20643;-89
2022/03/12 07:04:31;;;;;;;9.20;7.87;;;5.60;59.80;;;;;;6135234;23;20536;-87
2022/03/12 07:07:01;;;;;;;12.23;7.00;;;5.50;59.60;;;;;;6158043;23;20406;-90
2022/03/12 07:09:27;;;;;;;8.70;7.13;;;5.70;58.60;;;;;;6135619;23;20396;-88
2022/03/12 07:11:58;;;;;;;13.20;7.73;;;5.80;58.50;;;;;;6138043;23;20397;-87
2022/03/12 07:14:26;;;;;;;8.37;6.97;;;5.90;58.80;;;;;;6132396;23;20590;-88
2022/03/12 07:16:54;;;;;;;9.40;7.13;;;5.80;59.90;;;;;;6131744;23;20774;-88
2022/03/12 07:19:42;;;;;;;9.53;7.43;;;5.80;60.50;;;;;;6141153;23;20392;-93
2022/03/12 07:22:17;;;;;;;9.70;7.97;;;5.80;59.90;;;;;;6138549;23;20496;-95
2022/03/12 07:24:42;;;;;;;8.87;7.47;;;5.80;59.50;;;;;;6136607;23;20869;-90
2022/03/12 07:27:08;;;;;;;10.00;8.03;;;5.70;59.70;;;;;;6133274;23;20408;-89
2022/03/12 07:29:34;;;;;;;10.87;7.80;;;5.90;59.80;;;;;;6136824;23;20157;-87
2022/03/12 07:32:00;;;;;;;10.60;7.40;;;6.00;59.70;;;;;;6133219;23;20388;-87
2022/03/12 07:34:27;;;;;;;18.33;14.40;;;6.00;59.00;;;;;;6137955;23;20253;-89
2022/03/12 07:36:53;;;;;;;9.77;7.90;;;6.00;59.30;;;;;;6165791;23;20866;-90
2022/03/12 07:39:31;;;;;;;9.80;8.07;;;5.90;59.60;;;;;;6143623;23;20404;-92
2022/03/12 07:42:01;;;;;;;12.03;8.63;;;6.10;60.30;;;;;;6141618;23;20381;-90
2022/03/12 07:44:27;;;;;;;11.20;8.87;;;6.10;60.60;;;;;;6137035;23;20724;-88
2022/03/12 07:46:52;;;;;;;10.00;7.73;;;6.10;59.50;;;;;;6136080;23;20405;-88
2022/03/12 07:49:18;;;;;;;11.73;8.27;;;6.20;59.10;;;;;;6135966;23;20169;-89
2022/03/12 07:51:43;;;;;;;8.53;7.60;;;6.30;59.80;;;;;;6131853;23;20164;-88
2022/03/12 07:54:12;;;;;;;10.70;8.43;;;6.10;60.90;;;;;;6128152;23;20667;-88
2022/03/12 07:56:44;;;;;;;11.30;7.63;;;6.10;61.20;;;;;;6127135;23;20157;-89
2022/03/12 07:59:12;;;;;;;10.13;7.23;;;6.00;61.10;;;;;;6127801;23;20466;-89
2022/03/12 08:01:38;;;;;;;8.83;7.70;;;6.30;61.70;;;;;;6132947;23;20480;-90
2022/03/12 08:04:04;;;;;;;9.57;8.50;;;6.50;61.80;;;;;;6130735;23;20875;-89
2022/03/12 08:06:30;;;;;;;9.73;7.90;;;6.70;60.50;;;;;;6136537;23;20579;-90
2022/03/12 08:08:57;;;;;;;10.40;7.80;;;6.60;60.00;;;;;;6134566;23;20475;-90
2022/03/12 08:11:32;;;;;;;10.80;7.57;;;7.00;58.30;;;;;;6136354;23;20720;-90
2022/03/12 08:14:05;;;;;;;11.13;8.43;;;7.30;58.00;;;;;;6133251;23;20388;-91
2022/03/12 08:16:35;;;;;;;10.30;9.20;;;7.60;57.70;;;;;;6135508;23;20801;-90
2022/03/12 08:19:06;;;;;;;13.43;9.00;;;7.60;56.30;;;;;;6134723;23;20547;-87
2022/03/12 08:21:33;;;;;;;9.33;7.77;;;7.60;59.30;;;;;;6135634;23;20396;-89
2022/03/12 08:23:58;;;;;;;12.07;9.10;;;7.80;57.40;;;;;;6134638;23;20392;-90
2022/03/12 08:26:28;;;;;;;8.40;7.60;;;8.10;58.10;;;;;;6135087;23;20451;-90
2022/03/12 08:28:54;;;;;;;10.30;8.70;;;8.50;57.10;;;;;;6141140;23;20159;-90
2022/03/12 08:31:20;;;;;;;11.33;9.63;;;8.50;56.10;;;;;;6138186;23;20407;-90
2022/03/12 08:33:45;;;;;;;9.77;8.77;;;8.50;57.30;;;;;;6133966;23;20389;-91
2022/03/12 08:36:11;;;;;;;10.80;8.97;;;8.60;57.10;;;;;;6133771;23;20660;-90
2022/03/12 08:38:38;;;;;;;11.73;9.60;;;8.80;57.30;;;;;;6133792;23;20308;-88
2022/03/12 08:41:05;;;;;;;9.70;8.70;;;8.90;56.10;;;;;;6134606;23;20450;-89
2022/03/12 08:43:32;;;;;;;9.90;8.80;;;9.10;56.70;;;;;;6135736;23;20398;-92
2022/03/12 08:45:59;;;;;;;14.40;10.23;;;9.30;55.90;;;;;;6135628;23;20461;-91
2022/03/12 08:48:25;;;;;;;13.53;9.67;;;9.40;58.30;;;;;;6130732;23;20409;-90
2022/03/12 08:50:50;;;;;;;10.50;9.40;;;9.60;56.90;;;;;;6135286;23;20399;-88
2022/03/12 08:53:16;;;;;;;12.33;8.90;;;9.90;58.20;;;;;;6131650;23;20161;-88
2022/03/12 08:55:42;;;;;;;12.60;10.17;;;10.20;54.90;;;;;;6130863;23;20180;-87
2022/03/12 08:58:07;;;;;;;12.53;10.63;;;10.40;54.70;;;;;;6136005;23;20163;-87
2022/03/12 09:00:34;;;;;;;13.70;10.80;;;10.40;54.40;;;;;;6130737;23;20515;-89
2022/03/12 09:03:00;;;;;;;14.87;10.80;;;10.40;57.40;;;;;;6123145;23;20392;-89
2022/03/12 09:05:28;;;;;;;11.70;9.87;;;10.50;56.10;;;;;;6124295;23;20830;-88
2022/03/12 09:07:54;;;;;;;14.30;10.90;;;10.60;57.50;;;;;;6131001;23;20160;-87
2022/03/12 09:10:22;;;;;;;13.80;11.50;;;10.60;59.40;;;;;;6126237;23;20463;-87
2022/03/12 09:12:47;;;;;;;12.53;11.10;;;10.70;58.50;;;;;;6125046;23;20510;-87
2022/03/12 09:15:13;;;;;;;16.23;11.70;;;10.60;58.30;;;;;;6127720;23;20849;-86
2022/03/12 09:17:40;;;;;;;11.33;10.03;;;11.00;54.40;;;;;;6151174;23;20149;-86
2022/03/12 09:20:07;;;;;;;13.43;12.03;;;11.20;58.00;;;;;;6124318;23;20430;-86
2022/03/12 09:22:32;;;;;;;18.03;13.00;;;11.20;52.90;;;;;;6132744;23;20380;-86
2022/03/12 09:24:59;;;;;;;16.43;12.43;;;11.30;52.90;;;;;;6128629;23;20829;-87
2022/03/12 09:27:24;;;;;;;17.33;12.07;;;11.10;53.60;;;;;;6130726;23;20156;-88
2022/03/12 09:29:50;;;;;;;12.93;11.53;;;11.60;53.00;;;;;;6131058;23;20407;-87
2022/03/12 09:32:16;;;;;;;13.10;11.17;;;11.70;59.60;;;;;;6127874;23;20565;-87
2022/03/12 09:34:42;;;;;;;17.97;12.27;;;12.00;53.90;;;;;;6128066;23;20357;-88
2022/03/12 09:37:09;;;;;;;14.50;12.87;;;11.80;52.70;;;;;;6124770;23;20163;-88
2022/03/12 09:39:35;;;;;;;15.40;12.47;;;12.00;52.40;;;;;;6130743;23;20532;-88
2022/03/12 09:42:01;;;;;;;14.50;12.30;;;12.00;53.40;;;;;;6130737;23;20416;-86
2022/03/12 09:44:27;;;;;;;15.10;11.50;;;11.90;57.40;;;;;;6131360;23;20434;-88
2022/03/12 09:46:55;;;;;;;15.03;12.17;;;11.90;55.30;;;;;;6129991;23;20483;-88
2022/03/12 09:49:21;;;;;;;13.83;11.97;;;11.90;56.60;;;;;;6126880;23;20312;-86
2022/03/12 09:51:47;;;;;;;15.87;12.57;;;12.00;56.70;;;;;;6127573;23;20400;-87
2022/03/12 09:54:13;;;;;;;14.90;13.10;;;12.20;56.90;;;;;;6121748;23;20166;-89
2022/03/12 09:56:39;;;;;;;16.07;13.23;;;12.20;54.20;;;;;;6123497;23;20914;-88
2022/03/12 09:59:05;;;;;;;16.40;13.90;;;12.40;54.70;;;;;;6124663;23;20163;-87
2022/03/12 10:01:32;;;;;;;16.30;13.20;;;12.30;54.20;;;;;;6121205;23;20415;-90
2022/03/12 10:03:58;;;;;;;18.33;13.43;;;12.50;55.20;;;;;;6119043;23;20849;-91
2022/03/12 10:06:23;;;;;;;15.70;13.77;;;12.60;57.10;;;;;;6119198;23;20821;-88
2022/03/12 10:08:50;;;;;;;17.67;13.30;;;12.80;54.40;;;;;;6125695;23;20419;-85
2022/03/12 10:11:17;;;;;;;14.77;12.93;;;12.90;53.50;;;;;;6126218;23;20164;-85
2022/03/12 10:13:42;;;;;;;16.03;14.07;;;13.20;53.40;;;;;;6131846;23;20758;-87
2022/03/12 10:16:09;;;;;;;15.37;13.00;;;13.20;53.60;;;;;;6130547;23;20593;-86
2022/03/12 10:18:36;;;;;;;15.67;13.90;;;12.90;54.10;;;;;;6125881;23;20488;-85
2022/03/12 10:21:02;;;;;;;17.17;14.97;;;12.80;52.90;;;;;;6123561;23;20400;-87
2022/03/12 10:23:28;;;;;;;16.33;13.43;;;12.80;53.50;;;;;;6124270;23;20810;-88
2022/03/12 10:25:58;;;;;;;18.17;14.20;;;13.00;53.30;;;;;;6128675;23;20446;-87
2022/03/12 10:28:24;;;;;;;17.57;14.67;;;13.30;54.30;;;;;;6123270;23;20203;-86
2022/03/12 10:30:50;;;;;;;22.30;16.70;;;13.40;53.60;;;;;;6131991;23;20423;-87
2022/03/12 10:33:25;;;;;;;18.10;16.20;;;13.00;52.70;;;;;;6133066;23;20157;-87
2022/03/12 10:35:51;;;;;;;21.87;15.60;;;13.10;54.10;;;;;;6130100;23;20227;-87
2022/03/12 10:38:22;;;;;;;18.10;14.77;;;13.20;51.70;;;;;;6137741;23;20839;-87
2022/03/12 10:40:48;;;;;;;17.07;14.20;;;13.30;55.40;;;;;;6132525;23;20392;-86
2022/03/12 10:43:14;;;;;;;20.83;15.23;;;13.70;52.90;;;;;;6134658;23;20848;-87
2022/03/12 10:45:50;;;;;;;16.10;13.03;;;14.10;53.70;;;;;;6130523;23;20192;-86
2022/03/12 10:48:19;;;;;;;18.50;15.30;;;13.90;54.00;;;;;;6131855;23;20388;-86
2022/03/12 10:50:50;;;;;;;17.57;14.80;;;14.20;53.30;;;;;;6136712;23;20449;-86
2022/03/12 10:53:18;;;;;;;20.20;14.83;;;14.40;54.60;;;;;;6132315;23;20393;-88
2022/03/12 10:55:47;;;;;;;17.37;13.83;;;14.30;52.80;;;;;;6134877;23;20746;-88
2022/03/12 10:58:21;;;;;;;18.67;14.03;;;13.90;53.20;;;;;;6132762;23;20387;-88
2022/03/12 11:00:48;;;;;;;17.20;14.40;;;14.30;53.70;;;;;;6133497;23;20923;-87
2022/03/12 11:03:20;;;;;;;15.20;13.60;;;14.60;54.50;;;;;;6132792;23;20642;-88
2022/03/12 11:05:47;;;;;;;16.50;13.37;;;15.00;53.20;;;;;;6131547;23;20435;-85
2022/03/12 11:08:17;;;;;;;17.30;13.60;;;14.80;53.20;;;;;;6133757;23;20406;-85
2022/03/12 11:11:12;;;;;;;16.90;13.97;;;14.70;53.30;;;;;;6134630;23;20396;-86
2022/03/12 11:13:48;;;;;;;15.10;13.43;;;14.30;53.20;;;;;;6136988;23;20418;-90
2022/03/12 11:16:35;;;;;;;14.87;13.27;;;14.50;55.00;;;;;;6137828;23;20383;-90
2022/03/12 11:19:11;;;;;;;15.07;12.90;;;14.70;55.30;;;;;;6152882;23;20391;-89
2022/03/12 11:21:56;;;;;;;14.50;12.30;;;14.80;55.70;;;;;;6170707;23;20475;-90
2022/03/12 11:24:42;;;;;;;13.40;12.00;;;14.80;57.40;;;;;;6142995;23;20892;-89
2022/03/12 11:27:34;;;;;;;14.93;12.80;;;14.80;58.00;;;;;;6170713;23;20457;-90
2022/03/12 11:30:09;;;;;;;14.27;11.87;;;14.90;56.90;;;;;;6142047;23;20836;-91
2022/03/12 11:32:37;;;;;;;13.80;12.33;;;14.90;57.70;;;;;;6139291;23;20862;-89
2022/03/12 11:35:10;;;;;;;16.00;11.90;;;15.10;57.60;;;;;;6138245;23;20914;-90
2022/03/12 11:37:37;;;;;;;13.70;11.37;;;15.50;58.20;;;;;;6138270;23;21093;-89
2022/03/12 11:40:11;;;;;;;13.90;12.27;;;15.90;58.60;;;;;;6135739;23;20395;-90
2022/03/12 11:42:39;;;;;;;11.93;10.83;;;15.80;57.50;;;;;;6137827;23;20387;-90
2022/03/12 11:45:11;;;;;;;11.60;10.40;;;16.00;58.60;;;;;;6136657;23;20440;-89
2022/03/12 11:47:38;;;;;;;13.60;11.43;;;15.70;57.90;;;;;;6138413;23;20467;-90
2022/03/12 11:50:08;;;;;;;12.63;11.33;;;15.70;58.70;;;;;;6136838;23;20816;-88
2022/03/12 11:52:35;;;;;;;12.63;10.90;;;15.80;56.20;;;;;;6132336;23;20400;-89
2022/03/12 11:55:11;;;;;;;15.50;12.27;;;16.10;57.10;;;;;;6132175;23;20838;-89
2022/03/12 11:57:36;;;;;;;16.07;14.23;;;16.00;58.50;;;;;;6138278;23;20395;-88
2022/03/12 12:00:10;;;;;;;16.00;14.10;;;16.10;57.80;;;;;;6133309;23;20422;-88
2022/03/12 12:02:37;;;;;;;11.80;10.60;;;16.30;59.00;;;;;;6127236;23;20218;-89
2022/03/12 12:05:08;;;;;;;12.50;11.20;;;16.90;56.20;;;;;;6130678;23;20443;-89
2022/03/12 12:07:38;;;;;;;11.47;9.87;;;17.30;54.60;;;;;;6128961;23;20700;-89
2022/03/12 12:10:10;;;;;;;13.47;11.47;;;17.00;55.60;;;;;;6125913;23;20397;-88
2022/03/12 12:12:37;;;;;;;12.10;10.80;;;16.70;56.20;;;;;;6127977;23;20850;-88
2022/03/12 12:15:05;;;;;;;11.50;10.30;;;16.70;55.50;;;;;;6125002;23;20400;-88
2022/03/12 12:17:32;;;;;;;10.87;9.60;;;16.80;57.60;;;;;;6130730;23;20470;-88
2022/03/12 12:20:03;;;;;;;11.20;10.00;;;17.00;56.90;;;;;;6124910;23;20478;-88
2022/03/12 12:22:50;;;;;;;11.33;9.70;;;17.80;56.10;;;;;;6150284;23;20572;-88
2022/03/12 12:25:17;;;;;;;11.00;9.90;;;17.70;55.70;;;;;;6123335;23;20462;-88
2022/03/12 12:27:45;;;;;;;13.77;10.43;;;17.60;56.30;;;;;;6128939;23;20388;-88
2022/03/12 12:30:15;;;;;;;12.70;10.70;;;17.70;55.70;;;;;;6127392;23;20404;-89
2022/03/12 12:32:49;;;;;;;12.00;10.73;;;18.00;56.50;;;;;;6131910;23;20518;-88
2022/03/12 12:35:17;;;;;;;11.60;10.40;;;17.40;55.70;;;;;;6125867;23;20404;-87
2022/03/12 12:37:57;;;;;;;11.50;10.27;;;17.10;54.30;;;;;;6127511;23;20849;-88
2022/03/12 12:40:41;;;;;;;9.93;9.03;;;17.30;56.70;;;;;;6123375;23;20399;-89
2022/03/12 12:43:09;;;;;;;11.40;10.30;;;17.20;56.70;;;;;;6128820;23;20394;-88
2022/03/12 12:45:56;;;;;;;11.23;10.03;;;17.40;56.70;;;;;;6124850;23;20950;-89
2022/03/12 12:48:38;;;;;;;11.70;9.20;;;17.60;55.70;;;;;;6126726;23;20395;-89